Time;durP1;ratioP1;P1;durP2;ratioP2;P2;SDS_P1;SDS_P2;PMS_P1;PMS_P2;Temp;Humidity;BMP_temperature;BMP_pressure;BME280_temperature;BME280_humidity;BME280_pressure;Samples;Min_cycle;Max_cycle;Signal;HPM_P1;HPM_P2
2023/04/04 00:00:46;;;;;;;;;;;;;;;-2.53;100.00;102367.13;4974912;28;19925;-89
2023/04/04 00:03:11;;;;;;;;;;;;;;;-2.52;100.00;102381.94;4978022;28;20017;-87
2023/04/04 00:05:36;;;;;;;;;;;;;;;-2.57;100.00;102372.44;4979281;28;19915;-88
2023/04/04 00:08:02;;;;;;;;;;;;;;;-2.55;100.00;102388.09;4971490;28;20013;-88
2023/04/04 00:10:27;;;;;;;;;;;;;;;-2.62;100.00;102383.91;4969064;28;19914;-88
2023/04/04 00:12:53;;;;;;;;;;;;;;;-2.63;100.00;102390.88;4956631;29;20688;-88
2023/04/04 00:15:21;;;;;;;;;;;;;;;-2.62;100.00;102397.00;4974230;28;20004;-88
2023/04/04 00:17:46;;;;;;;;;;;;;;;-2.64;100.00;102394.41;4958925;29;19914;-88
2023/04/04 00:20:13;;;;;;;;;;;;;;;-2.65;100.00;102384.81;4974998;28;20458;-87
2023/04/04 00:22:38;;;;;;;;;;;;;;;-2.63;100.00;102388.25;4974592;28;20286;-88
2023/04/04 00:25:03;;;;;;;;;;;;;;;-2.64;100.00;102396.16;4974694;28;19918;-87
2023/04/04 00:27:29;;;;;;;;;;;;;;;-2.62;100.00;102394.38;4974036;28;19925;-88
2023/04/04 00:29:54;;;;;;;;;;;;;;;-2.67;100.00;102391.88;4956903;28;19924;-88
2023/04/04 00:32:20;;;;;;;;;;;;;;;-2.65;100.00;102405.75;4974458;28;20354;-88
2023/04/04 00:34:45;;;;;;;;;;;;;;;-2.59;100.00;102418.69;4974387;28;19911;-88
2023/04/04 00:37:11;;;;;;;;;;;;;;;-2.60;100.00;102410.88;4974642;28;19914;-88
2023/04/04 00:39:37;;;;;;;;;;;;;;;-2.57;100.00;102406.44;4973869;28;19914;-88
2023/04/04 00:42:03;;;;;;;;;;;;;;;-2.55;100.00;102401.19;4971636;28;20558;-88
2023/04/04 00:44:29;;;;;;;;;;;;;;;-2.55;100.00;102383.72;4953551;29;20474;-88
2023/04/04 00:46:55;;;;;;;;;;;;;;;-2.51;100.00;102378.41;4966884;28;19973;-88
2023/04/04 00:49:20;;;;;;;;;;;;;;;-2.50;100.00;102364.44;4974903;28;19941;-88
2023/04/04 00:51:45;;;;;;;;;;;;;;;-2.54;100.00;102342.72;4974063;28;19921;-87
2023/04/04 00:54:11;;;;;;;;;;;;;;;-2.48;100.00;102346.94;4974567;28;20046;-88
2023/04/04 00:56:37;;;;;;;;;;;;;;;-2.46;100.00;102350.38;4959011;28;20401;-87
2023/04/04 00:59:03;;;;;;;;;;;;;;;-2.43;100.00;102342.47;4973953;28;19973;-88
2023/04/04 01:01:30;;;;;;;;;;;;;;;-2.42;100.00;102342.41;4974483;28;19926;-88
2023/04/04 01:03:56;;;;;;;;;;;;;;;-2.47;100.00;102312.91;4974262;28;19914;-88
2023/04/04 01:06:21;;;;;;;;;;;;;;;-2.57;100.00;102291.38;4974002;28;20446;-88
2023/04/04 01:08:47;;;;;;;;;;;;;;;-2.67;100.00;102278.56;4973544;28;19915;-88
2023/04/04 01:11:13;;;;;;;;;;;;;;;-2.59;100.00;102292.31;4958130;28;19910;-88
2023/04/04 01:13:38;;;;;;;;;;;;;;;-2.57;100.00;102306.22;4972467;28;19914;-87
2023/04/04 01:16:05;;;;;;;;;;;;;;;-2.60;100.00;102301.91;4957375;28;19918;-88
2023/04/04 01:18:32;;;;;;;;;;;;;;;-2.56;100.00;102310.53;4973694;28;19921;-88
2023/04/04 01:21:02;;;;;;;;;;;;;;;-2.55;100.00;102307.88;4974148;28;20698;-87
2023/04/04 01:23:46;;;;;;;;;;;;;;;-2.55;100.00;102297.41;4973118;28;20026;-88
2023/04/04 01:26:12;;;;;;;;;;;;;;;-2.55;100.00;102299.19;4973869;28;19915;-89
2023/04/04 01:28:38;;;;;;;;;;;;;;;-2.57;100.00;102288.75;4974084;28;19910;-87
2023/04/04 01:31:10;;;;;;;;;;;;;;;-2.63;100.00;102264.50;4968628;28;19982;-88
2023/04/04 01:33:40;;;;;;;;;;;;;;;-2.64;100.00;102242.75;4965419;28;19922;-87
2023/04/04 01:36:12;;;;;;;;;;;;;;;-2.61;100.00;102268.81;4950839;28;19918;-88
2023/04/04 01:38:42;;;;;;;;;;;;;;;-2.63;100.00;102257.53;4971768;28;19965;-88
2023/04/04 01:41:08;;;;;;;;;;;;;;;-2.61;100.00;102267.94;4972150;28;19969;-87
2023/04/04 01:43:43;;;;;;;;;;;;;;;-2.59;100.00;102276.63;4971403;28;19914;-88
2023/04/04 01:46:08;;;;;;;;;;;;;;;-2.55;100.00;102284.34;4948373;28;20514;-87
2023/04/04 01:48:33;;;;;;;;;;;;;;;-2.56;100.00;102276.53;4972365;28;20009;-88
2023/04/04 01:51:03;;;;;;;;;;;;;;;-2.57;100.00;102280.91;4970323;28;19945;-88
2023/04/04 01:53:28;;;;;;;;;;;;;;;-2.62;100.00;102277.56;4968559;28;20477;-88
2023/04/04 01:55:53;;;;;;;;;;;;;;;-2.66;100.00;102264.59;4955225;28;19925;-87
2023/04/04 01:58:19;;;;;;;;;;;;;;;-2.67;100.00;102261.13;4971217;28;19925;-88
2023/04/04 02:00:45;;;;;;;;;;;;;;;-2.70;100.00;102266.44;4954569;28;20403;-87
2023/04/04 02:03:10;;;;;;;;;;;;;;;-2.68;100.00;102284.69;4954648;28;19914;-87
2023/04/04 02:05:36;;;;;;;;;;;;;;;-2.71;100.00;102276.94;4970967;28;19914;-87
2023/04/04 02:08:01;;;;;;;;;;;;;;;-2.74;100.00;102283.09;4970115;28;19922;-89
2023/04/04 02:10:34;;;;;;;;;;;;;;;-2.73;100.00;102294.44;4965560;28;19914;-88
2023/04/04 02:12:59;;;;;;;;;;;;;;;-2.78;100.00;102295.38;4970063;28;20367;-87
2023/04/04 02:15:25;;;;;;;;;;;;;;;-2.80;100.00;102291.94;4969723;28;19918;-87
2023/04/04 02:17:51;;;;;;;;;;;;;;;-2.77;100.00;102298.84;4957762;28;19924;-87
2023/04/04 02:20:18;;;;;;;;;;;;;;;-2.78;100.00;102313.69;4969412;28;19925;-88
2023/04/04 02:22:51;;;;;;;;;;;;;;;-2.74;100.00;102319.69;4966158;28;19914;-88
2023/04/04 02:25:16;;;;;;;;;;;;;;;-2.74;100.00;102339.75;4969487;28;19925;-87
2023/04/04 02:27:42;;;;;;;;;;;;;;;-2.74;100.00;102337.13;4970216;28;20314;-89
2023/04/04 02:30:11;;;;;;;;;;;;;;;-2.68;100.00;102358.75;4969843;28;20008;-88
2023/04/04 02:32:37;;;;;;;;;;;;;;;-2.72;100.00;102359.72;4970125;28;20295;-87
2023/04/04 02:35:04;;;;;;;;;;;;;;;-2.74;100.00;102356.28;4970274;28;19924;-87
2023/04/04 02:37:29;;;;;;;;;;;;;;;-2.78;100.00;102344.22;4969524;28;19914;-87
2023/04/04 02:39:54;;;;;;;;;;;;;;;-2.79;100.00;102351.19;4961098;28;19911;-87
2023/04/04 02:42:20;;;;;;;;;;;;;;;-2.72;100.00;102362.34;4969329;28;19969;-87
2023/04/04 02:44:46;;;;;;;;;;;;;;;-2.70;100.00;102360.56;4969142;28;19926;-85
2023/04/04 02:47:15;;;;;;;;;;;;;;;-2.71;100.00;102364.06;4969006;28;19965;-87
2023/04/04 02:49:41;;;;;;;;;;;;;;;-2.73;100.00;102355.41;4962450;28;19925;-85
2023/04/04 02:52:07;;;;;;;;;;;;;;;-2.69;100.00;102366.63;4969194;28;19966;-87
2023/04/04 02:54:35;;;;;;;;;;;;;;;-2.66;100.00;102374.44;4962688;28;19914;-87
2023/04/04 02:57:03;;;;;;;;;;;;;;;-2.67;100.00;102355.28;4952412;29;19945;-87
2023/04/04 02:59:28;;;;;;;;;;;;;;;-2.67;100.00;102352.66;4969238;28;20001;-87
2023/04/04 03:01:54;;;;;;;;;;;;;;;-2.65;100.00;102356.06;4953283;28;20001;-88
2023/04/04 03:04:19;;;;;;;;;;;;;;;-2.65;100.00;102356.06;4969573;28;19922;-87
2023/04/04 03:06:47;;;;;;;;;;;;;;;-2.67;100.00;102359.63;4969187;28;20471;-86
2023/04/04 03:09:13;;;;;;;;;;;;;;;-2.65;100.00;102368.28;4964870;28;19978;-86
2023/04/04 03:11:38;;;;;;;;;;;;;;;-2.68;100.00;102363.13;4957680;28;19922;-87
2023/04/04 03:14:03;;;;;;;;;;;;;;;-2.71;100.00;102364.06;4952191;28;19911;-87
2023/04/04 03:16:33;;;;;;;;;;;;;;;-2.80;100.00;102356.47;4968295;28;19915;-88
2023/04/04 03:18:59;;;;;;;;;;;;;;;-2.77;100.00;102382.50;4968438;28;20431;-87
2023/04/04 03:21:24;;;;;;;;;;;;;;;-2.72;100.00;102404.16;4960792;28;20446;-87
2023/04/04 03:23:50;;;;;;;;;;;;;;;-2.73;100.00;102414.69;4968806;28;20017;-87
2023/04/04 03:26:15;;;;;;;;;;;;;;;-2.67;100.00;102425.88;4962094;28;19996;-87
2023/04/04 03:28:41;;;;;;;;;;;;;;;-2.69;100.00;102425.03;4968074;28;20021;-88
2023/04/04 03:31:08;;;;;;;;;;;;;;;-2.69;100.00;102419.81;4962557;28;19922;-87
2023/04/04 03:33:37;;;;;;;;;;;;;;;-2.76;100.00;102410.41;4968129;28;20374;-87
2023/04/04 03:36:12;;;;;;;;;;;;;;;-2.73;100.00;102418.16;4968215;28;19926;-87
2023/04/04 03:38:37;;;;;;;;;;;;;;;-2.70;100.00;102433.75;4963476;28;20382;-87
2023/04/04 03:41:03;;;;;;;;;;;;;;;-2.65;100.00;102450.19;4951691;28;19976;-87
2023/04/04 03:43:29;;;;;;;;;;;;;;;-2.62;100.00;102455.38;4960287;28;19965;-88
2023/04/04 03:45:59;;;;;;;;;;;;;;;-2.63;100.00;102448.41;4968268;28;19961;-87
2023/04/04 03:48:26;;;;;;;;;;;;;;;-2.63;100.00;102437.09;4968386;28;19914;-86
2023/04/04 03:50:51;;;;;;;;;;;;;;;-2.58;100.00;102433.47;4968469;28;19922;-87
2023/04/04 03:53:16;;;;;;;;;;;;;;;-2.56;100.00;102429.06;4968655;28;19914;-88
2023/04/04 03:55:41;;;;;;;;;;;;;;;-2.56;100.00;102421.22;4968646;28;19920;-87
2023/04/04 03:58:07;;;;;;;;;;;;;;;-2.55;100.00;102417.72;4960200;28;20004;-87
2023/04/04 04:00:32;;;;;;;;;;;;;;;-2.55;100.00;102404.66;4964712;28;19954;-86
2023/04/04 04:02:57;;;;;;;;;;;;;;;-2.52;100.00;102411.56;4968243;28;20705;-87
2023/04/04 04:05:23;;;;;;;;;;;;;;;-2.53;100.00;102411.56;4968194;28;19973;-86
2023/04/04 04:07:48;;;;;;;;;;;;;;;-2.61;100.00;102399.56;4949738;28;20303;-86
2023/04/04 04:10:14;;;;;;;;;;;;;;;-2.56;100.00;102404.66;4967659;28;19925;-88
2023/04/04 04:12:39;;;;;;;;;;;;;;;-2.59;100.00;102412.59;4967934;28;19956;-87
2023/04/04 04:15:04;;;;;;;;;;;;;;;-2.61;100.00;102410.00;4958958;28;19949;-88
2023/04/04 04:17:32;;;;;;;;;;;;;;;-2.55;100.00;102416.88;4951132;28;20443;-87
2023/04/04 04:19:57;;;;;;;;;;;;;;;-2.58;100.00;102414.31;4966478;28;20001;-86
2023/04/04 04:22:23;;;;;;;;;;;;;;;-2.51;100.00;102415.03;4966412;28;19986;-87
2023/04/04 04:24:48;;;;;;;;;;;;;;;-2.51;100.00;102417.63;4965958;28;19918;-87
2023/04/04 04:27:14;;;;;;;;;;;;;;;-2.53;100.00;102408.97;4943170;29;19915;-88
2023/04/04 04:29:39;;;;;;;;;;;;;;;-2.50;100.00;102419.38;4958782;28;19985;-87
2023/04/04 04:32:05;;;;;;;;;;;;;;;-2.50;100.00;102416.75;4970445;28;19915;-87
2023/04/04 04:34:34;;;;;;;;;;;;;;;-2.53;100.00;102414.19;4978302;28;19949;-88
2023/04/04 04:36:59;;;;;;;;;;;;;;;-2.51;100.00;102404.56;4975917;28;20275;-86
2023/04/04 04:39:30;;;;;;;;;;;;;;;-2.59;100.00;102392.53;4974712;28;19961;-88
2023/04/04 04:42:06;;;;;;;;;;;;;;;-2.61;100.00;102386.47;4969812;28;19953;-88
2023/04/04 04:44:33;;;;;;;;;;;;;;;-2.66;100.00;102375.28;4975142;28;19914;-88
2023/04/04 04:46:58;;;;;;;;;;;;;;;-2.68;100.00;102369.22;4973648;28;19918;-89
2023/04/04 04:49:24;;;;;;;;;;;;;;;-2.69;100.00;102370.13;4975579;28;19926;-88
2023/04/04 04:51:50;;;;;;;;;;;;;;;-2.73;100.00;102371.09;4975685;28;19978;-88
2023/04/04 04:54:17;;;;;;;;;;;;;;;-2.80;100.00;102359.91;4958379;28;19940;-87
2023/04/04 04:56:43;;;;;;;;;;;;;;;-2.80;100.00;102359.91;4973989;28;20005;-88
2023/04/04 04:59:11;;;;;;;;;;;;;;;-2.80;100.00;102361.69;4973495;28;19922;-88
2023/04/04 05:01:40;;;;;;;;;;;;;;;-2.81;100.00;102362.56;4972628;28;19926;-88
2023/04/04 05:04:06;;;;;;;;;;;;;;;-2.83;100.00;102361.78;4974539;28;19910;-88
2023/04/04 05:06:39;;;;;;;;;;;;;;;-2.85;100.00;102348.72;4957457;28;19918;-88
2023/04/04 05:09:07;;;;;;;;;;;;;;;-2.79;100.00;102356.44;4964779;28;19914;-87
2023/04/04 05:11:35;;;;;;;;;;;;;;;-2.73;100.00;102363.25;4951814;28;19921;-88
2023/04/04 05:14:02;;;;;;;;;;;;;;;-2.68;100.00;102361.38;4972161;28;19980;-87
2023/04/04 05:16:32;;;;;;;;;;;;;;;-2.60;100.00;102367.28;4970348;28;20013;-88
2023/04/04 05:18:57;;;;;;;;;;;;;;;-2.49;100.00;102374.00;4968187;28;19914;-87
2023/04/04 05:21:23;;;;;;;;;;;;;;;-2.40;100.00;102397.31;4948529;29;19925;-86
2023/04/04 05:23:50;;;;;;;;;;;;;;;-2.41;100.00;102386.00;4970017;28;20268;-87
2023/04/04 05:26:17;;;;;;;;;;;;;;;-2.45;100.00;102371.28;4969527;28;19918;-87
2023/04/04 05:28:44;;;;;;;;;;;;;;;-2.35;100.00;102372.75;4969398;28;20434;-87
2023/04/04 05:31:10;;;;;;;;;;;;;;;-2.30;100.00;102363.91;4969988;28;20023;-87
2023/04/04 05:33:36;;;;;;;;;;;;;;;-2.25;100.00;102359.41;4970383;28;19925;-88
2023/04/04 05:36:11;;;;;;;;;;;;;;;-2.19;100.00;102361.88;4969392;28;19970;-87
2023/04/04 05:38:43;;;;;;;;;;;;;;;-2.15;100.00;102367.00;4968525;28;19914;-87
2023/04/04 05:41:09;;;;;;;;;;;;;;;-2.09;100.00;102359.88;4968906;28;19929;-87
2023/04/04 05:43:35;;;;;;;;;;;;;;;-2.04;100.00;102363.22;4969513;28;19919;-86
2023/04/04 05:46:07;;;;;;;;;;;;;;;-1.94;100.00;102375.19;4961806;28;19922;-83
2023/04/04 05:48:44;;;;;;;;;;;;;;;-1.90;100.00;102371.53;4962466;28;19914;-86
2023/04/04 05:51:11;;;;;;;;;;;;;;;-1.82;100.00;102368.75;4969364;28;19925;-86
2023/04/04 05:53:46;;;;;;;;;;;;;;;-1.75;100.00;102352.81;4968338;28;20002;-86
2023/04/04 05:56:16;;;;;;;;;;;;;;;-1.58;100.00;102377.66;4969755;28;20359;-85
2023/04/04 05:58:43;;;;;;;;;;;;;;;-1.42;100.00;102425.22;4969216;28;20373;-86
2023/04/04 06:01:09;;;;;;;;;;;;;;;-0.77;100.00;102508.03;4962204;28;19928;-85
2023/04/04 06:03:36;;;;;;;;;;;;;;;1.31;100.00;102649.16;4969328;28;20314;-86
2023/04/04 06:06:03;;;;;;;;;;;;;;;2.97;100.00;102619.63;4969424;28;19918;-86
2023/04/04 06:08:32;;;;;;;;;;;;;;;4.29;100.00;102499.78;4969152;28;20013;-87
2023/04/04 06:10:57;;;;;;;;;;;;;;;5.41;100.00;102307.50;4969655;28;20371;-86
2023/04/04 06:13:22;;;;;;;;;;;;;;;6.20;100.00;102051.66;4964280;28;19922;-86
2023/04/04 06:15:52;;;;;;;;;;;;;;;6.91;100.00;101721.19;4949780;29;20009;-86
2023/04/04 06:18:19;;;;;;;;;;;;;;;7.21;100.00;101342.69;4961431;28;19936;-90
2023/04/04 06:20:44;;;;;;;;;;;;;;;7.39;100.00;101079.00;4984298;28;19994;-89
2023/04/04 06:23:10;;;;;;;;;;;;;;;7.91;100.00;100793.59;4985089;28;19992;-88
2023/04/04 06:25:38;;;;;;;;;;;;;;;8.10;100.00;100494.88;4971334;28;19945;-87
2023/04/04 06:28:03;;;;;;;;;;;;;;;7.50;100.00;100036.72;4973346;28;19911;-89
2023/04/04 06:30:29;;;;;;;;;;;;;;;8.12;100.00;100179.97;4974089;28;20360;-88
2023/04/04 06:32:55;;;;;;;;;;;;;;;8.07;98.69;100085.75;4973783;28;20565;-88
2023/04/04 06:35:24;;;;;;;;;;;;;;;8.56;95.64;100053.94;4970428;28;19914;-88
2023/04/04 06:37:57;;;;;;;;;;;;;;;8.51;92.04;99764.44;4970383;28;19936;-88
2023/04/04 06:40:23;;;;;;;;;;;;;;;8.68;90.47;99786.47;4969411;28;19929;-89
2023/04/04 06:42:50;;;;;;;;;;;;;;;8.50;88.31;99647.56;4970242;28;19921;-88
2023/04/04 06:45:17;;;;;;;;;;;;;;;8.72;86.71;99595.38;4965905;28;19954;-88
2023/04/04 06:47:42;;;;;;;;;;;;;;;8.30;85.36;99469.81;4950630;29;20053;-89
2023/04/04 06:50:11;;;;;;;;;;;;;;;7.84;84.90;99400.72;4952446;28;20790;-88
2023/04/04 06:52:37;;;;;;;;;;;;;;;7.33;85.02;99395.94;4968669;28;20356;-87
2023/04/04 06:55:03;;;;;;;;;;;;;;;7.48;85.60;99607.63;4968658;28;19928;-88
2023/04/04 06:57:28;;;;;;;;;;;;;;;7.49;84.53;99557.00;4968385;28;19918;-88
2023/04/04 06:59:53;;;;;;;;;;;;;;;7.42;84.90;99648.97;4951326;28;19925;-87
2023/04/04 07:02:19;;;;;;;;;;;;;;;7.12;84.46;99566.41;4968263;28;19922;-88
2023/04/04 07:04:44;;;;;;;;;;;;;;;7.40;84.24;99677.53;4960123;28;20593;-88
2023/04/04 07:07:10;;;;;;;;;;;;;;;7.04;84.18;99622.13;4967644;28;19922;-89
2023/04/04 07:09:35;;;;;;;;;;;;;;;6.84;83.32;99517.38;4967267;28;19915;-87
2023/04/04 07:12:01;;;;;;;;;;;;;;;6.73;83.15;99545.88;4966842;28;19914;-88
2023/04/04 07:14:26;;;;;;;;;;;;;;;6.56;82.12;99443.47;4967722;28;20016;-88
2023/04/04 07:16:51;;;;;;;;;;;;;;;6.40;81.34;99338.25;4967251;28;20000;-88
2023/04/04 07:19:17;;;;;;;;;;;;;;;6.75;81.27;99490.84;4967081;28;19922;-89
2023/04/04 07:21:42;;;;;;;;;;;;;;;6.71;79.39;99274.66;4966977;28;19944;-89
2023/04/04 07:24:08;;;;;;;;;;;;;;;6.39;80.08;99333.97;4951452;28;20013;-88
2023/04/04 07:26:33;;;;;;;;;;;;;;;6.18;80.74;99405.22;4965713;28;19910;-88
2023/04/04 07:28:59;;;;;;;;;;;;;;;6.43;80.87;99549.19;4964546;28;19918;-89
2023/04/04 07:31:24;;;;;;;;;;;;;;;6.65;81.08;99667.91;4961336;28;20422;-88
2023/04/04 07:33:52;;;;;;;;;;;;;;;6.79;79.40;99495.78;4967274;28;19914;-88
2023/04/04 07:36:18;;;;;;;;;;;;;;;6.48;78.28;99302.94;4967452;28;20039;-88
2023/04/04 07:38:43;;;;;;;;;;;;;;;6.50;78.02;99301.78;4966737;28;19914;-90
2023/04/04 07:41:10;;;;;;;;;;;;;;;6.28;77.39;99201.81;4967737;28;19918;-88
2023/04/04 07:43:35;;;;;;;;;;;;;;;6.40;76.98;99239.34;4945880;28;20413;-88
2023/04/04 07:46:01;;;;;;;;;;;;;;;6.00;75.84;98942.63;4969903;28;20012;-87
2023/04/04 07:48:26;;;;;;;;;;;;;;;6.20;76.62;99215.88;4969372;28;20383;-87
2023/04/04 07:50:52;;;;;;;;;;;;;;;5.97;75.75;99062.19;4967365;28;20301;-88
2023/04/04 07:53:17;;;;;;;;;;;;;;;5.80;76.28;99101.09;4962482;28;20046;-88
2023/04/04 07:55:42;;;;;;;;;;;;;;;6.03;77.37;99386.53;4970212;28;19921;-89
2023/04/04 07:58:07;;;;;;;;;;;;;;;5.68;75.84;99094.53;4943673;29;19930;-87
2023/04/04 08:00:33;;;;;;;;;;;;;;;5.61;76.29;99188.91;4964291;28;20868;-87
2023/04/04 08:02:58;;;;;;;;;;;;;;;5.78;77.08;99389.13;4954210;28;19914;-87
2023/04/04 08:05:24;;;;;;;;;;;;;;;5.98;76.88;99431.25;4969109;28;19938;-88
2023/04/04 08:07:49;;;;;;;;;;;;;;;6.02;75.98;99361.03;4968586;28;19925;-87
2023/04/04 08:10:16;;;;;;;;;;;;;;;5.88;76.52;99389.00;4968685;28;19961;-87
2023/04/04 08:12:41;;;;;;;;;;;;;;;6.05;77.17;99535.56;4968852;28;19918;-86
2023/04/04 08:15:07;;;;;;;;;;;;;;;5.65;76.57;99307.53;4969013;28;19917;-87
2023/04/04 08:17:32;;;;;;;;;;;;;;;5.70;77.38;99522.38;4968765;28;19914;-86
2023/04/04 08:19:57;;;;;;;;;;;;;;;5.92;77.42;99620.75;4969079;28;19918;-87
2023/04/04 08:22:23;;;;;;;;;;;;;;;5.98;76.26;99455.09;4968810;28;20397;-85
2023/04/04 08:24:48;;;;;;;;;;;;;;;5.53;75.01;99165.09;4972061;28;20560;-86
2023/04/04 08:27:16;;;;;;;;;;;;;;;5.71;76.09;99462.28;4947844;29;19911;-87
2023/04/04 08:29:41;;;;;;;;;;;;;;;5.28;75.39;99228.63;4972601;28;20256;-87
2023/04/04 08:32:07;;;;;;;;;;;;;;;5.98;74.50;99418.00;4965048;28;19921;-87
2023/04/04 08:34:33;;;;;;;;;;;;;;;6.65;74.08;99461.03;4973745;28;19914;-86
2023/04/04 08:36:58;;;;;;;;;;;;;;;7.51;74.66;99873.69;4973203;28;19918;-88
2023/04/04 08:39:24;;;;;;;;;;;;;;;7.61;71.31;99376.84;4965387;28;20264;-87
2023/04/04 08:41:56;;;;;;;;;;;;;;;7.94;70.79;99401.34;4973130;28;19919;-88
2023/04/04 08:44:23;;;;;;;;;;;;;;;8.79;70.10;99565.22;4973784;28;19926;-88
2023/04/04 08:46:49;;;;;;;;;;;;;;;8.52;66.70;98956.63;4973214;28;19914;-88
2023/04/04 08:49:15;;;;;;;;;;;;;;;8.03;65.09;98621.53;4973151;28;20001;-88
2023/04/04 08:51:41;;;;;;;;;;;;;;;7.64;64.26;98420.31;4972702;28;19918;-87
2023/04/04 08:54:08;;;;;;;;;;;;;;;7.55;64.11;98430.28;4963889;28;19952;-86
2023/04/04 08:56:34;;;;;;;;;;;;;;;7.53;64.01;98427.00;4972582;28;20379;-87
2023/04/04 08:59:00;;;;;;;;;;;;;;;7.22;64.91;98503.66;4971490;28;19921;-88
2023/04/04 09:01:28;;;;;;;;;;;;;;;8.28;65.20;98974.59;4973020;28;19918;-87
2023/04/04 09:03:55;;;;;;;;;;;;;;;8.59;63.24;98758.00;4973147;28;19937;-87
2023/04/04 09:06:21;;;;;;;;;;;;;;;9.36;62.33;98894.44;4972958;28;19914;-88
2023/04/04 09:08:46;;;;;;;;;;;;;;;8.93;60.22;98349.94;4972551;28;19921;-87
2023/04/04 09:11:12;;;;;;;;;;;;;;;8.58;59.79;98227.09;4973240;28;19918;-86
2023/04/04 09:13:39;;;;;;;;;;;;;;;8.02;59.62;98066.38;4972777;28;20298;-87
2023/04/04 09:16:04;;;;;;;;;;;;;;;7.76;59.56;98022.16;4973283;28;19953;-89
2023/04/04 09:18:30;;;;;;;;;;;;;;;7.08;59.93;97898.66;4956312;28;19926;-87
2023/04/04 09:20:55;;;;;;;;;;;;;;;7.21;59.56;97904.94;4972527;28;19965;-87
2023/04/04 09:23:22;;;;;;;;;;;;;;;7.81;59.10;98139.19;4957174;28;19922;-87
2023/04/04 09:25:48;;;;;;;;;;;;;;;7.96;59.23;98224.78;4972897;28;20375;-87
2023/04/04 09:28:14;;;;;;;;;;;;;;;8.11;58.62;98237.03;4971919;28;19911;-88
2023/04/04 09:30:39;;;;;;;;;;;;;;;8.16;56.82;97947.53;4971616;28;19921;-87
2023/04/04 09:33:05;;;;;;;;;;;;;;;8.16;55.79;97798.72;4971875;28;19950;-88
2023/04/04 09:35:40;;;;;;;;;;;;;;;7.71;55.01;97531.50;4970913;28;20577;-87
2023/04/04 09:38:06;;;;;;;;;;;;;;;7.40;55.10;97403.22;4971627;28;19922;-88
2023/04/04 09:40:31;;;;;;;;;;;;;;;6.96;56.15;97503.28;4971978;28;19981;-86
2023/04/04 09:43:00;;;;;;;;;;;;;;;7.34;57.10;97960.63;4972560;28;19914;-87
2023/04/04 09:45:25;;;;;;;;;;;;;;;7.53;56.52;97911.94;4954942;28;19918;-83
2023/04/04 09:47:51;;;;;;;;;;;;;;;7.79;57.22;98143.88;4970587;28;19924;-85
2023/04/04 09:50:22;;;;;;;;;;;;;;;6.66;56.66;97590.63;4953714;28;19934;-85
2023/04/04 09:52:48;;;;;;;;;;;;;;;7.59;57.48;98242.19;4970192;28;19921;-84
2023/04/04 09:55:13;;;;;;;;;;;;;;;7.91;56.56;98215.78;4970975;28;20307;-88
2023/04/04 09:57:40;;;;;;;;;;;;;;;6.85;55.12;97437.72;4955706;28;19921;-87
2023/04/04 10:00:09;;;;;;;;;;;;;;;6.15;57.07;97631.25;4968429;28;19914;-87
2023/04/04 10:02:40;;;;;;;;;;;;;;;7.32;56.82;98169.69;4952436;29;19918;-88
2023/04/04 10:05:09;;;;;;;;;;;;;;;7.44;55.68;97963.63;4971203;28;19921;-87
2023/04/04 10:07:36;;;;;;;;;;;;;;;8.41;55.87;98396.91;4971677;28;19940;-87
2023/04/04 10:10:06;;;;;;;;;;;;;;;9.11;55.06;98508.16;4970773;28;19922;-88
2023/04/04 10:12:31;;;;;;;;;;;;;;;9.34;54.21;98423.31;4971360;28;19991;-87
2023/04/04 10:14:57;;;;;;;;;;;;;;;9.48;53.36;98226.97;4971496;28;20371;-87
2023/04/04 10:17:24;;;;;;;;;;;;;;;8.62;52.56;97761.03;4971302;28;19921;-87
2023/04/04 10:19:50;;;;;;;;;;;;;;;8.42;52.69;97708.06;4970709;28;19925;-87
2023/04/04 10:22:16;;;;;;;;;;;;;;;8.59;53.52;98054.03;4970705;28;19934;-88
2023/04/04 10:24:41;;;;;;;;;;;;;;;9.86;51.94;98263.34;4970399;28;19994;-87
2023/04/04 10:27:07;;;;;;;;;;;;;;;9.57;51.22;97953.97;4969909;28;19918;-88
2023/04/04 10:29:32;;;;;;;;;;;;;;;8.97;50.99;97693.06;4969350;28;19938;-88
2023/04/04 10:32:04;;;;;;;;;;;;;;;9.36;51.50;97941.94;4970322;28;19914;-88
2023/04/04 10:34:31;;;;;;;;;;;;;;;8.78;50.99;97580.56;4971167;28;20290;-87
2023/04/04 10:37:05;;;;;;;;;;;;;;;9.20;50.60;97722.41;4970233;28;19921;-87
2023/04/04 10:39:45;;;;;;;;;;;;;;;9.19;50.12;97642.78;4970131;28;19967;-87
2023/04/04 10:42:13;;;;;;;;;;;;;;;9.27;49.50;97592.69;4970037;28;19918;-89
2023/04/04 10:44:38;;;;;;;;;;;;;;;8.68;49.71;97386.19;4970609;28;19910;-88
2023/04/04 10:47:07;;;;;;;;;;;;;;;8.30;49.37;97209.34;4970130;28;20449;-87
2023/04/04 10:49:32;;;;;;;;;;;;;;;8.43;49.97;97454.50;4953521;28;19997;-88
2023/04/04 10:51:58;;;;;;;;;;;;;;;8.80;49.08;97470.28;4969992;28;19914;-88
2023/04/04 10:54:27;;;;;;;;;;;;;;;9.11;49.30;97641.28;4969422;28;19934;-88
2023/04/04 10:56:55;;;;;;;;;;;;;;;9.64;49.15;97842.81;4969797;28;20531;-88
2023/04/04 10:59:23;;;;;;;;;;;;;;;9.08;48.73;97484.69;4969459;28;19953;-89
2023/04/04 11:01:53;;;;;;;;;;;;;;;9.91;50.18;98178.22;4965922;28;19961;-87
2023/04/04 11:04:20;;;;;;;;;;;;;;;9.63;48.06;97633.44;4961367;28;19914;-87
2023/04/04 11:07:04;;;;;;;;;;;;;;;10.58;48.24;98103.59;4969195;28;19917;-88
2023/04/04 11:09:48;;;;;;;;;;;;;;;11.50;47.60;98337.47;4969292;28;19996;-87
2023/04/04 11:12:19;;;;;;;;;;;;;;;11.90;44.80;97863.72;4953760;28;20295;-87
2023/04/04 11:15:08;;;;;;;;;;;;;;;11.42;44.85;97590.59;4955574;28;19922;-87
2023/04/04 11:17:51;;;;;;;;;;;;;;;10.92;44.26;97228.47;4952391;28;19925;-87
2023/04/04 11:20:22;;;;;;;;;;;;;;;11.90;44.94;97976.81;4968782;28;19914;-88
2023/04/04 11:23:07;;;;;;;;;;;;;;;11.74;43.32;97481.22;4968999;28;19920;-87
2023/04/04 11:25:37;;;;;;;;;;;;;;;10.54;43.73;97052.28;4969165;28;19914;-87
2023/04/04 11:28:06;;;;;;;;;;;;;;;11.35;44.19;97593.44;4967970;28;19925;-89
2023/04/04 11:30:37;;;;;;;;;;;;;;;12.22;43.76;97978.97;5008051;23;19934;-88
2023/04/04 11:33:03;;;;;;;;;;;;;;;12.25;42.80;97722.53;4972817;28;19937;-87
2023/04/04 11:35:28;;;;;;;;;;;;;;;12.79;42.49;97804.03;4988571;28;20382;-88
2023/04/04 11:37:54;;;;;;;;;;;;;;;13.17;42.01;97901.44;4987998;28;19917;-87
2023/04/04 11:40:21;;;;;;;;;;;;;;;12.38;40.18;97111.41;4971222;28;20819;-88
2023/04/04 11:42:51;;;;;;;;;;;;;;;12.35;40.84;97328.63;4958913;28;19938;-88
2023/04/04 11:45:19;;;;;;;;;;;;;;;11.60;41.34;97053.31;4952776;28;19918;-87
2023/04/04 11:47:48;;;;;;;;;;;;;;;11.75;41.90;97378.63;4973808;23;20872;-79
2023/04/04 11:50:14;;;;;;;;;;;;;;;11.12;41.17;96849.63;4959586;28;19990;-78
2023/04/04 11:52:40;;;;;;;;;;;;;;;10.89;41.16;96820.69;4950597;29;19921;-80
2023/04/04 11:55:16;;;;;;;;;;;;;;;10.86;42.13;97110.16;4934188;29;19969;-79
2023/04/04 11:57:42;;;;;;;;;;;;;;;10.57;42.94;97123.78;4959328;28;20360;-79
2023/04/04 12:00:07;;;;;;;;;;;;;;;9.96;42.92;96898.41;4957254;28;19957;-79
2023/04/04 12:02:35;;;;;;;;;;;;;;;10.45;43.07;97309.00;4955287;28;20671;-78
2023/04/04 12:05:00;;;;;;;;;;;;;;;10.67;41.65;97149.75;4971320;28;19922;-80
2023/04/04 12:07:27;;;;;;;;;;;;;;;10.32;42.03;96944.84;4973835;28;20013;-79
2023/04/04 12:09:53;;;;;;;;;;;;;;;10.64;41.98;97187.59;4957537;28;19915;-79
2023/04/04 12:12:18;;;;;;;;;;;;;;;10.72;41.76;97163.16;4972909;28;19933;-78
2023/04/04 12:14:44;;;;;;;;;;;;;;;9.82;42.66;96921.97;4954838;28;20037;-79
2023/04/04 12:17:09;;;;;;;;;;;;;;;10.35;43.55;97435.78;4955063;28;19976;-78
2023/04/04 12:19:35;;;;;;;;;;;;;;;10.35;42.82;97366.44;4971329;28;19921;-79
2023/04/04 12:22:01;;;;;;;;;;;;;;;10.29;42.80;97303.44;4971119;28;19946;-78
2023/04/04 12:24:27;;;;;;;;;;;;;;;10.31;43.53;97519.97;4963743;28;19999;-79
2023/04/04 12:26:52;;;;;;;;;;;;;;;10.34;43.40;97484.00;4958106;28;20399;-80
2023/04/04 12:29:19;;;;;;;;;;;;;;;9.33;43.39;96937.94;4972392;28;19914;-79
2023/04/04 12:31:45;;;;;;;;;;;;;;;9.76;43.79;97354.50;4962820;28;19975;-78
2023/04/04 12:34:18;;;;;;;;;;;;;;;9.94;43.24;97309.78;4955257;28;19922;-78
2023/04/04 12:36:45;;;;;;;;;;;;;;;9.67;44.07;97373.56;4971315;28;19914;-79
2023/04/04 12:39:11;;;;;;;;;;;;;;;9.83;44.92;97686.38;4954749;28;20037;-78